Time;durP1;ratioP1;P1;durP2;ratioP2;P2;SDS_P1;SDS_P2;PMS_P1;PMS_P2;Temp;Humidity;BMP_temperature;BMP_pressure;BME280_temperature;BME280_humidity;BME280_pressure;Samples;Min_cycle;Max_cycle;Signal;HPM_P1;HPM_P2
2023/01/06 00:00:09;;;;;;;18.70;6.28;;;;;;;;;;5086794;28;20040;-62
2023/01/06 00:02:35;;;;;;;20.63;6.70;;;;;;;;;;5085715;28;20051;-62
2023/01/06 00:05:01;;;;;;;14.40;4.55;;;;;;;;;;5087417;28;20051;-62
2023/01/06 00:07:27;;;;;;;13.23;5.30;;;;;;;;;;5084362;28;20043;-62
2023/01/06 00:09:53;;;;;;;14.38;4.93;;;;;;;;;;5085947;28;20470;-62
2023/01/06 00:12:19;;;;;;;14.57;4.95;;;;;;;;;;5085955;28;20042;-62
2023/01/06 00:14:46;;;;;;;11.52;4.13;;;;;;;;;;5084567;28;20248;-62
2023/01/06 00:17:12;;;;;;;11.75;4.97;;;;;;;;;;5087516;28;20585;-62
2023/01/06 00:19:38;;;;;;;16.80;4.95;;;;;;;;;;5078670;28;20056;-62
2023/01/06 00:22:04;;;;;;;20.60;5.63;;;;;;;;;;5085313;28;20052;-62
2023/01/06 00:24:32;;;;;;;18.75;5.47;;;;;;;;;;5085715;28;20131;-62
2023/01/06 00:26:58;;;;;;;13.05;4.40;;;;;;;;;;5086841;28;20546;-62
2023/01/06 00:29:24;;;;;;;19.00;5.47;;;;;;;;;;5085757;28;20124;-62
2023/01/06 00:31:50;;;;;;;24.95;6.18;;;;;;;;;;5082439;28;20040;-62
2023/01/06 00:34:16;;;;;;;11.07;4.90;;;;;;;;;;5070735;28;20048;-62
2023/01/06 00:36:42;;;;;;;16.70;5.22;;;;;;;;;;5079750;28;20109;-62
2023/01/06 00:39:08;;;;;;;16.17;4.47;;;;;;;;;;5086537;28;20672;-62
2023/01/06 00:44:18;;;;;;;13.27;3.63;;;;;;;;;;5086212;28;20397;-62
2023/01/06 00:46:44;;;;;;;12.25;4.50;;;;;;;;;;5084579;28;20148;-62
2023/01/06 00:49:10;;;;;;;15.07;4.72;;;;;;;;;;5084114;28;20054;-62
2023/01/06 00:51:38;;;;;;;15.38;4.03;;;;;;;;;;5085893;28;20089;-62
2023/01/06 00:54:04;;;;;;;15.07;3.78;;;;;;;;;;5086640;28;20799;-62
2023/01/06 00:56:30;;;;;;;16.70;4.25;;;;;;;;;;5084755;28;20566;-62
2023/01/06 00:58:56;;;;;;;14.18;4.03;;;;;;;;;;5085401;28;20048;-62
2023/01/06 01:01:22;;;;;;;13.88;3.08;;;;;;;;;;5078799;28;20513;-62
2023/01/06 01:03:48;;;;;;;14.23;3.63;;;;;;;;;;5077006;28;20487;-62
2023/01/06 01:06:14;;;;;;;12.73;3.50;;;;;;;;;;5073945;28;20064;-62
2023/01/06 01:08:40;;;;;;;10.82;3.60;;;;;;;;;;5069683;28;20052;-62
2023/01/06 01:11:08;;;;;;;13.75;4.05;;;;;;;;;;5070414;28;20153;-62
2023/01/06 01:13:34;;;;;;;11.43;3.53;;;;;;;;;;5071142;28;20040;-62
2023/01/06 01:16:07;;;;;;;11.77;3.28;;;;;;;;;;5065382;28;20044;-62
2023/01/06 01:18:33;;;;;;;8.98;2.42;;;;;;;;;;5067949;28;20711;-62
2023/01/06 01:20:59;;;;;;;10.52;3.35;;;;;;;;;;5072160;28;20052;-62
2023/01/06 01:23:25;;;;;;;6.88;2.55;;;;;;;;;;5072373;28;20049;-62
2023/01/06 01:25:55;;;;;;;6.05;3.08;;;;;;;;;;5075718;28;20112;-62
2023/01/06 01:28:21;;;;;;;12.18;2.70;;;;;;;;;;5070735;28;20129;-62
2023/01/06 01:30:47;;;;;;;6.93;2.40;;;;;;;;;;5077371;28;20047;-62
2023/01/06 01:33:13;;;;;;;6.60;2.90;;;;;;;;;;5075727;28;20497;-62
2023/01/06 01:35:39;;;;;;;7.35;2.75;;;;;;;;;;5077533;28;20043;-62
2023/01/06 01:38:05;;;;;;;9.73;2.90;;;;;;;;;;5087988;28;20062;-62
2023/01/06 01:40:31;;;;;;;5.25;2.42;;;;;;;;;;5079695;28;20077;-62
2023/01/06 01:42:57;;;;;;;8.13;2.63;;;;;;;;;;5081175;28;20043;-62
2023/01/06 01:45:25;;;;;;;6.55;2.08;;;;;;;;;;5092651;28;20044;-63
2023/01/06 01:47:55;;;;;;;4.70;1.98;;;;;;;;;;5097248;28;20486;-62
2023/01/06 01:50:34;;;;;;;7.80;2.13;;;;;;;;;;5097069;28;20127;-62
2023/01/06 01:53:20;;;;;;;7.93;2.67;;;;;;;;;;5092612;28;20040;-62
2023/01/06 01:55:47;;;;;;;8.50;2.83;;;;;;;;;;5093730;28;20060;-62
2023/01/06 01:58:13;;;;;;;6.70;2.33;;;;;;;;;;5081040;28;20063;-62
2023/01/06 02:00:40;;;;;;;10.57;2.97;;;;;;;;;;5094255;28;20082;-62
2023/01/06 02:03:06;;;;;;;8.98;2.75;;;;;;;;;;5094777;28;20601;-62
2023/01/06 02:05:33;;;;;;;10.02;2.80;;;;;;;;;;5083656;28;20048;-62
2023/01/06 02:08:01;;;;;;;8.93;3.22;;;;;;;;;;5096752;28;20035;-62
2023/01/06 02:10:28;;;;;;;8.25;3.28;;;;;;;;;;5083301;28;20618;-62
2023/01/06 02:12:56;;;;;;;5.20;2.83;;;;;;;;;;5086343;28;20071;-62
2023/01/06 02:15:27;;;;;;;7.28;3.17;;;;;;;;;;5076042;28;20066;-62
2023/01/06 02:17:53;;;;;;;12.55;3.80;;;;;;;;;;5082537;28;20075;-62
2023/01/06 02:20:24;;;;;;;7.00;3.22;;;;;;;;;;5085772;28;20071;-62
2023/01/06 02:23:03;;;;;;;6.50;3.00;;;;;;;;;;5094171;28;20028;-62
2023/01/06 02:25:35;;;;;;;5.05;2.83;;;;;;;;;;5090668;28;20829;-62
2023/01/06 02:28:12;;;;;;;7.80;3.30;;;;;;;;;;5094741;28;20050;-62
2023/01/06 02:31:03;;;;;;;6.18;3.10;;;;;;;;;;5094245;28;20474;-62
2023/01/06 02:33:32;;;;;;;11.40;3.30;;;;;;;;;;5077508;28;20105;-62
2023/01/06 02:36:04;;;;;;;5.57;2.95;;;;;;;;;;5094312;28;20040;-62
2023/01/06 02:38:48;;;;;;;8.13;3.08;;;;;;;;;;5093371;28;20050;-62
2023/01/06 02:41:29;;;;;;;7.78;2.78;;;;;;;;;;5090887;28;20506;-62
2023/01/06 02:44:00;;;;;;;5.47;2.60;;;;;;;;;;5095787;28;20032;-62
2023/01/06 02:46:35;;;;;;;7.63;2.90;;;;;;;;;;5095439;28;20073;-62
2023/01/06 02:49:04;;;;;;;6.15;2.83;;;;;;;;;;5073785;28;20052;-62
2023/01/06 02:51:43;;;;;;;7.95;2.63;;;;;;;;;;5082554;28;20044;-62
2023/01/06 02:54:32;;;;;;;5.82;2.70;;;;;;;;;;5080687;28;20036;-62
2023/01/06 02:57:16;;;;;;;4.57;1.85;;;;;;;;;;5096579;28;20032;-62
2023/01/06 02:59:53;;;;;;;4.10;2.20;;;;;;;;;;5095319;28;20048;-63
2023/01/06 03:02:19;;;;;;;4.57;2.20;;;;;;;;;;5093874;28;20036;-62
2023/01/06 03:04:46;;;;;;;6.97;2.47;;;;;;;;;;5091423;28;20035;-62
2023/01/06 03:07:14;;;;;;;5.40;2.20;;;;;;;;;;5098198;28;20032;-62
2023/01/06 03:09:40;;;;;;;4.38;1.92;;;;;;;;;;5096057;28;20079;-64
2023/01/06 03:12:07;;;;;;;6.28;2.58;;;;;;;;;;5080921;28;20083;-62
2023/01/06 03:14:37;;;;;;;5.78;1.98;;;;;;;;;;5083651;28;20044;-62
2023/01/06 03:17:03;;;;;;;5.03;2.28;;;;;;;;;;5096115;28;20258;-62
2023/01/06 03:19:29;;;;;;;7.75;2.25;;;;;;;;;;5097087;28;20074;-62
2023/01/06 03:21:56;;;;;;;3.20;1.75;;;;;;;;;;5098788;28;20542;-62
2023/01/06 03:24:22;;;;;;;3.17;1.92;;;;;;;;;;5078141;28;20039;-62
2023/01/06 03:26:49;;;;;;;5.70;2.60;;;;;;;;;;5096299;28;20044;-62
2023/01/06 03:29:17;;;;;;;4.28;1.88;;;;;;;;;;5082606;28;20043;-62
2023/01/06 03:32:01;;;;;;;3.75;2.70;;;;;;;;;;5096223;28;20048;-62
2023/01/06 03:34:43;;;;;;;3.33;2.58;;;;;;;;;;5086765;28;20040;-62
2023/01/06 03:37:28;;;;;;;4.93;2.53;;;;;;;;;;5093235;28;20052;-62
2023/01/06 03:40:00;;;;;;;4.55;2.72;;;;;;;;;;5095065;28;20082;-62
2023/01/06 03:45:27;;;;;;;5.38;2.47;;;;;;;;;;5094417;28;20047;-62
2023/01/06 03:47:53;;;;;;;4.68;2.65;;;;;;;;;;5096089;28;20039;-62
2023/01/06 03:50:22;;;;;;;5.95;2.63;;;;;;;;;;5084802;28;20097;-62
2023/01/06 03:53:05;;;;;;;4.00;2.30;;;;;;;;;;5093180;28;20050;-62
2023/01/06 03:55:33;;;;;;;6.18;2.97;;;;;;;;;;5075807;28;20048;-62
2023/01/06 03:58:00;;;;;;;3.92;3.08;;;;;;;;;;5093097;28;20063;-62
2023/01/06 04:00:36;;;;;;;5.45;2.95;;;;;;;;;;5088436;28;20051;-62
2023/01/06 04:03:03;;;;;;;4.43;3.25;;;;;;;;;;5080969;28;20370;-62
2023/01/06 04:05:29;;;;;;;5.05;3.25;;;;;;;;;;5081810;28;20079;-62
2023/01/06 04:07:56;;;;;;;5.40;3.70;;;;;;;;;;5096530;28;20093;-62
2023/01/06 04:10:22;;;;;;;4.97;3.55;;;;;;;;;;5084482;28;20047;-62
2023/01/06 04:12:49;;;;;;;3.80;3.45;;;;;;;;;;5095457;28;20040;-62
2023/01/06 04:15:22;;;;;;;5.75;3.67;;;;;;;;;;5082741;28;20126;-62
2023/01/06 04:17:48;;;;;;;4.47;3.35;;;;;;;;;;5083390;28;20048;-62
2023/01/06 04:20:19;;;;;;;4.15;3.75;;;;;;;;;;5100170;28;20073;-62
2023/01/06 04:22:45;;;;;;;5.35;3.97;;;;;;;;;;5100126;28;20044;-62
2023/01/06 04:25:11;;;;;;;6.97;4.20;;;;;;;;;;5087521;28;20409;-62
2023/01/06 04:27:37;;;;;;;8.63;4.13;;;;;;;;;;5075973;28;20036;-62
2023/01/06 04:30:04;;;;;;;4.20;3.78;;;;;;;;;;5069359;28;20123;-62
2023/01/06 04:32:30;;;;;;;4.15;3.65;;;;;;;;;;5086930;28;20040;-62
2023/01/06 04:34:56;;;;;;;5.53;4.28;;;;;;;;;;5069651;28;20048;-62
2023/01/06 04:37:22;;;;;;;3.63;3.30;;;;;;;;;;5095628;28;20139;-62
2023/01/06 04:39:48;;;;;;;3.97;3.35;;;;;;;;;;5093778;28;20079;-62
2023/01/06 04:42:14;;;;;;;6.30;3.47;;;;;;;;;;5094239;28;20500;-62
2023/01/06 04:44:41;;;;;;;7.13;3.55;;;;;;;;;;5100303;28;20047;-62
2023/01/06 04:47:07;;;;;;;2.83;2.55;;;;;;;;;;5098195;28;20537;-62
2023/01/06 04:49:33;;;;;;;5.97;2.97;;;;;;;;;;5078026;28;20105;-62
2023/01/06 04:51:59;;;;;;;5.45;2.65;;;;;;;;;;5091683;28;20040;-62
2023/01/06 04:54:25;;;;;;;2.20;2.05;;;;;;;;;;5086068;28;20509;-62
2023/01/06 04:56:51;;;;;;;4.22;2.25;;;;;;;;;;5076373;28;20043;-62
2023/01/06 04:59:18;;;;;;;4.82;2.45;;;;;;;;;;5095763;28;20036;-62
2023/01/06 05:01:43;;;;;;;2.97;1.95;;;;;;;;;;5093783;28;20050;-62
2023/01/06 05:04:10;;;;;;;2.00;1.75;;;;;;;;;;5083205;28;20398;-62
2023/01/06 05:06:38;;;;;;;2.25;1.75;;;;;;;;;;5101759;28;20498;-62
2023/01/06 05:09:04;;;;;;;3.95;1.95;;;;;;;;;;5095166;28;20048;-62
2023/01/06 05:11:30;;;;;;;2.55;1.83;;;;;;;;;;5087458;28;20086;-62
2023/01/06 05:13:56;;;;;;;2.40;1.52;;;;;;;;;;5086936;28;20043;-62
2023/01/06 05:16:22;;;;;;;2.38;1.90;;;;;;;;;;5085122;28;20092;-62
2023/01/06 05:18:48;;;;;;;3.45;2.08;;;;;;;;;;5096054;28;20142;-62
2023/01/06 05:21:14;;;;;;;2.70;1.70;;;;;;;;;;5084864;28;20378;-62
2023/01/06 05:23:41;;;;;;;5.30;2.22;;;;;;;;;;5094361;28;20044;-62
2023/01/06 05:26:08;;;;;;;4.72;2.33;;;;;;;;;;5084674;28;20051;-62
2023/01/06 05:28:34;;;;;;;4.95;2.58;;;;;;;;;;5091797;28;20510;-62
2023/01/06 05:31:01;;;;;;;4.43;1.98;;;;;;;;;;5088549;28;20184;-62
2023/01/06 05:33:27;;;;;;;3.08;1.98;;;;;;;;;;5096864;28;20131;-62
2023/01/06 05:35:57;;;;;;;3.35;2.40;;;;;;;;;;5090548;28;20040;-62
2023/01/06 05:38:23;;;;;;;2.08;1.80;;;;;;;;;;5097157;28;20055;-62
2023/01/06 05:40:52;;;;;;;2.20;2.00;;;;;;;;;;5098540;28;20052;-62
2023/01/06 05:43:18;;;;;;;1.90;1.80;;;;;;;;;;5087022;28;20055;-61
2023/01/06 05:45:44;;;;;;;3.60;2.70;;;;;;;;;;5098575;28;20059;-62
2023/01/06 05:48:10;;;;;;;3.05;2.45;;;;;;;;;;5097242;28;20040;-62
2023/01/06 05:50:36;;;;;;;2.10;1.85;;;;;;;;;;5086782;28;20051;-62
2023/01/06 05:53:02;;;;;;;2.97;2.17;;;;;;;;;;5094116;28;20044;-62
2023/01/06 05:55:28;;;;;;;2.47;2.28;;;;;;;;;;5099961;28;20554;-62
2023/01/06 05:57:54;;;;;;;4.18;2.40;;;;;;;;;;5097480;28;20064;-62
2023/01/06 06:00:20;;;;;;;3.08;2.65;;;;;;;;;;5086754;28;20039;-62
2023/01/06 06:02:46;;;;;;;2.38;2.17;;;;;;;;;;5086487;28;20058;-62
2023/01/06 06:05:12;;;;;;;3.22;2.92;;;;;;;;;;5097925;28;20040;-62
2023/01/06 06:07:38;;;;;;;3.88;3.15;;;;;;;;;;5098760;28;20457;-62
2023/01/06 06:10:04;;;;;;;3.50;3.20;;;;;;;;;;5085400;28;20047;-62
2023/01/06 06:12:30;;;;;;;4.53;3.67;;;;;;;;;;5086421;28;20845;-62
2023/01/06 06:14:56;;;;;;;4.63;4.25;;;;;;;;;;5095261;28;20592;-62
2023/01/06 06:17:24;;;;;;;4.75;4.30;;;;;;;;;;5086692;28;20039;-62
2023/01/06 06:19:50;;;;;;;5.20;4.53;;;;;;;;;;5097519;28;21815;-62
2023/01/06 06:22:16;;;;;;;4.80;4.40;;;;;;;;;;5098112;28;20432;-62
2023/01/06 06:24:42;;;;;;;4.55;4.15;;;;;;;;;;5086840;28;20123;-62
2023/01/06 06:27:08;;;;;;;4.40;4.00;;;;;;;;;;5084241;28;20048;-62
2023/01/06 06:29:34;;;;;;;5.00;4.53;;;;;;;;;;5098398;28;20473;-62
2023/01/06 06:32:00;;;;;;;4.60;4.30;;;;;;;;;;5085254;28;20130;-62
2023/01/06 06:34:26;;;;;;;4.78;4.38;;;;;;;;;;5086286;28;20079;-62
2023/01/06 06:36:53;;;;;;;4.65;4.22;;;;;;;;;;5097409;28;20094;-62
2023/01/06 06:39:19;;;;;;;4.00;3.70;;;;;;;;;;5097822;28;20146;-62
2023/01/06 06:41:45;;;;;;;5.25;4.07;;;;;;;;;;5085099;28;20460;-62
2023/01/06 06:44:10;;;;;;;4.28;3.88;;;;;;;;;;5083029;28;20039;-62
2023/01/06 06:46:36;;;;;;;5.28;4.05;;;;;;;;;;5098497;28;20047;-62
2023/01/06 06:49:03;;;;;;;4.30;3.90;;;;;;;;;;5091686;28;20101;-61
2023/01/06 06:51:30;;;;;;;5.60;3.78;;;;;;;;;;5086828;28;20051;-62
2023/01/06 06:53:56;;;;;;;4.13;3.35;;;;;;;;;;5085276;28;20482;-62
2023/01/06 06:56:22;;;;;;;3.13;2.90;;;;;;;;;;5084553;28;20040;-62
2023/01/06 06:58:48;;;;;;;3.50;3.20;;;;;;;;;;5095292;28;20501;-62
2023/01/06 07:01:16;;;;;;;3.33;3.03;;;;;;;;;;5084043;28;20205;-62
2023/01/06 07:03:42;;;;;;;6.78;3.50;;;;;;;;;;5092334;28;20040;-62
2023/01/06 07:06:09;;;;;;;3.65;3.17;;;;;;;;;;5093115;28;20395;-62
2023/01/06 07:08:35;;;;;;;3.42;2.97;;;;;;;;;;5095515;28;20036;-62
2023/01/06 07:11:02;;;;;;;3.20;2.60;;;;;;;;;;5093876;28;20247;-62
2023/01/06 07:13:28;;;;;;;4.38;2.95;;;;;;;;;;5098004;28;20058;-61
2023/01/06 07:15:54;;;;;;;2.55;2.30;;;;;;;;;;5094595;28;20039;-61
2023/01/06 07:18:20;;;;;;;1.90;1.80;;;;;;;;;;5097529;28;20039;-61
2023/01/06 07:20:48;;;;;;;2.15;1.95;;;;;;;;;;5088027;28;20048;-61
2023/01/06 07:23:14;;;;;;;2.22;2.00;;;;;;;;;;5086145;28;20054;-61
2023/01/06 07:25:40;;;;;;;5.40;2.15;;;;;;;;;;5098684;28;20072;-63
2023/01/06 07:28:08;;;;;;;1.98;1.83;;;;;;;;;;5091050;28;20503;-63
2023/01/06 07:30:34;;;;;;;2.28;2.05;;;;;;;;;;5087218;28;20051;-63
2023/01/06 07:33:00;;;;;;;4.78;2.03;;;;;;;;;;5099657;28;20172;-63
2023/01/06 07:35:26;;;;;;;3.55;1.73;;;;;;;;;;5094724;28;20050;-63
2023/01/06 07:37:52;;;;;;;1.75;1.30;;;;;;;;;;5086059;28;20790;-62
2023/01/06 07:40:18;;;;;;;4.70;1.75;;;;;;;;;;5095336;28;20170;-62
2023/01/06 07:42:44;;;;;;;4.80;1.77;;;;;;;;;;5087155;28;20052;-62
2023/01/06 07:45:11;;;;;;;2.97;1.38;;;;;;;;;;5095669;28;20040;-62
2023/01/06 07:47:37;;;;;;;4.78;1.05;;;;;;;;;;5083181;28;20056;-62
2023/01/06 07:50:03;;;;;;;3.83;1.40;;;;;;;;;;5091050;28;20170;-62
2023/01/06 07:52:30;;;;;;;2.28;0.90;;;;;;;;;;5084400;28;20124;-62
2023/01/06 07:54:58;;;;;;;2.25;0.80;;;;;;;;;;5086366;28;20044;-62
2023/01/06 07:57:24;;;;;;;1.58;0.80;;;;;;;;;;5090502;28;20381;-62
2023/01/06 07:59:50;;;;;;;1.05;0.40;;;;;;;;;;5093371;28;20041;-61
2023/01/06 08:02:16;;;;;;;1.50;0.45;;;;;;;;;;5096687;28;20039;-62
2023/01/06 08:04:42;;;;;;;1.70;0.32;;;;;;;;;;5092556;28;20059;-62
2023/01/06 08:07:08;;;;;;;0.98;0.20;;;;;;;;;;5096731;28;20468;-62
2023/01/06 08:09:34;;;;;;;0.45;0.38;;;;;;;;;;5094580;28;20055;-62
2023/01/06 08:12:00;;;;;;;1.00;0.30;;;;;;;;;;5099808;28;20420;-62
2023/01/06 08:14:26;;;;;;;1.40;0.20;;;;;;;;;;5088066;28;20051;-62
2023/01/06 08:16:52;;;;;;;1.35;0.30;;;;;;;;;;5070849;28;20473;-62
2023/01/06 08:19:18;;;;;;;1.85;0.50;;;;;;;;;;5085781;28;20058;-62
2023/01/06 08:21:44;;;;;;;3.25;0.70;;;;;;;;;;5097822;28;20063;-62
2023/01/06 08:24:10;;;;;;;0.93;0.40;;;;;;;;;;5101965;28;20044;-62
2023/01/06 08:26:36;;;;;;;1.75;0.30;;;;;;;;;;5079333;28;20055;-62
2023/01/06 08:29:02;;;;;;;2.30;0.65;;;;;;;;;;5096282;28;20051;-62
2023/01/06 08:31:28;;;;;;;1.23;0.50;;;;;;;;;;5079497;28;20056;-62
2023/01/06 08:33:54;;;;;;;1.92;0.50;;;;;;;;;;5093087;28;20066;-62
2023/01/06 08:36:22;;;;;;;1.42;0.38;;;;;;;;;;5097525;28;20102;-62
2023/01/06 08:38:48;;;;;;;1.75;0.30;;;;;;;;;;5086924;28;20612;-62
2023/01/06 08:41:14;;;;;;;1.98;0.68;;;;;;;;;;5087289;28;20545;-62
2023/01/06 08:43:41;;;;;;;0.38;0.30;;;;;;;;;;5091271;28;20076;-62
2023/01/06 08:46:10;;;;;;;1.67;0.40;;;;;;;;;;5087699;28;20044;-62
2023/01/06 08:48:36;;;;;;;2.88;0.60;;;;;;;;;;5094638;28;20111;-62
2023/01/06 08:51:07;;;;;;;1.17;0.50;;;;;;;;;;5090222;28;20567;-61
2023/01/06 08:53:34;;;;;;;2.72;1.05;;;;;;;;;;5069032;28;20096;-62
2023/01/06 08:56:00;;;;;;;4.57;0.85;;;;;;;;;;5085830;28;20048;-62
2023/01/06 08:58:26;;;;;;;5.05;0.63;;;;;;;;;;5079771;28;20047;-62
2023/01/06 09:00:52;;;;;;;5.03;1.08;;;;;;;;;;5105305;28;20529;-62
2023/01/06 09:03:18;;;;;;;4.15;0.47;;;;;;;;;;5084460;28;20052;-62
2023/01/06 09:05:51;;;;;;;4.28;1.00;;;;;;;;;;5104373;28;20097;-62
2023/01/06 09:08:17;;;;;;;4.35;0.55;;;;;;;;;;5080313;28;20127;-63
2023/01/06 09:10:43;;;;;;;5.82;1.23;;;;;;;;;;5082808;28;20486;-62
2023/01/06 09:13:09;;;;;;;3.17;0.82;;;;;;;;;;5093759;28;20028;-62
2023/01/06 09:15:39;;;;;;;10.05;1.48;;;;;;;;;;5086204;28;20048;-62
2023/01/06 09:18:07;;;;;;;5.35;1.17;;;;;;;;;;5084559;28;20131;-60
2023/01/06 09:20:33;;;;;;;4.22;1.20;;;;;;;;;;5085488;28;20599;-63
2023/01/06 09:22:59;;;;;;;11.30;1.55;;;;;;;;;;5086605;28;20047;-59
2023/01/06 09:25:25;;;;;;;3.95;1.45;;;;;;;;;;5086073;28;20143;-62
2023/01/06 09:27:51;;;;;;;6.15;1.25;;;;;;;;;;5090317;28;20450;-64
2023/01/06 09:30:17;;;;;;;5.68;1.38;;;;;;;;;;5085677;28;20047;-59
2023/01/06 09:32:43;;;;;;;8.32;1.15;;;;;;;;;;5097160;28;20047;-60
2023/01/06 09:35:09;;;;;;;3.67;1.20;;;;;;;;;;5085702;28;20500;-60
2023/01/06 09:37:36;;;;;;;7.10;1.35;;;;;;;;;;5077343;28;20722;-60
2023/01/06 09:40:02;;;;;;;6.35;1.02;;;;;;;;;;5084161;28;20533;-60
2023/01/06 09:42:31;;;;;;;6.30;1.50;;;;;;;;;;5069256;28;20086;-60
2023/01/06 09:44:57;;;;;;;7.20;1.77;;;;;;;;;;5068613;28;20055;-60
2023/01/06 09:47:27;;;;;;;6.38;1.42;;;;;;;;;;5094652;28;20517;-60
2023/01/06 09:49:58;;;;;;;4.20;1.05;;;;;;;;;;5095650;28;20035;-60
2023/01/06 09:52:27;;;;;;;2.83;0.77;;;;;;;;;;5081104;28;20074;-60
2023/01/06 09:54:55;;;;;;;4.53;1.20;;;;;;;;;;5079205;28;20322;-60
2023/01/06 09:57:26;;;;;;;4.05;0.98;;;;;;;;;;5059473;28;20062;-60
2023/01/06 09:59:56;;;;;;;7.35;1.52;;;;;;;;;;5085841;28;20581;-59
2023/01/06 10:02:25;;;;;;;6.10;0.73;;;;;;;;;;5103869;28;20390;-60
2023/01/06 10:04:51;;;;;;;3.22;1.05;;;;;;;;;;5085801;28;20044;-60
2023/01/06 10:07:24;;;;;;;4.82;1.30;;;;;;;;;;5068542;28;20051;-60
2023/01/06 10:09:56;;;;;;;2.67;0.98;;;;;;;;;;5076678;28;20047;-59
2023/01/06 10:12:48;;;;;;;5.68;1.40;;;;;;;;;;5081266;28;20128;-60
2023/01/06 10:15:25;;;;;;;4.80;1.50;;;;;;;;;;5043777;28;20062;-60
2023/01/06 10:17:57;;;;;;;5.28;0.88;;;;;;;;;;5074991;28;20135;-60
2023/01/06 10:20:43;;;;;;;2.93;0.83;;;;;;;;;;5072460;28;20052;-60
2023/01/06 10:23:09;;;;;;;7.97;1.77;;;;;;;;;;5084272;28;20812;-60
2023/01/06 10:25:55;;;;;;;5.22;1.17;;;;;;;;;;5084824;28;20046;-60
2023/01/06 10:28:21;;;;;;;6.90;1.13;;;;;;;;;;5064321;28;20047;-60
2023/01/06 10:30:51;;;;;;;6.63;1.83;;;;;;;;;;5091358;28;20039;-60
2023/01/06 10:33:23;;;;;;;6.90;1.60;;;;;;;;;;5065733;28;20112;-61
2023/01/06 10:35:49;;;;;;;5.28;0.93;;;;;;;;;;5083750;28;20208;-60
2023/01/06 10:38:15;;;;;;;6.97;1.00;;;;;;;;;;5072670;28;20059;-60
2023/01/06 10:40:41;;;;;;;7.25;1.17;;;;;;;;;;5068381;28;20482;-60
2023/01/06 10:43:09;;;;;;;10.00;1.77;;;;;;;;;;5085108;28;20494;-60
2023/01/06 10:45:46;;;;;;;8.80;1.50;;;;;;;;;;5068050;28;20901;-60
2023/01/06 10:48:14;;;;;;;4.75;1.17;;;;;;;;;;5088006;28;20055;-60
2023/01/06 10:50:41;;;;;;;5.53;1.10;;;;;;;;;;5065380;28;20059;-60
2023/01/06 10:53:07;;;;;;;5.03;1.27;;;;;;;;;;5080492;28;20040;-61
2023/01/06 10:55:42;;;;;;;5.55;1.23;;;;;;;;;;5064249;28;20055;-61
2023/01/06 10:58:27;;;;;;;8.00;1.13;;;;;;;;;;5085271;28;20032;-61
2023/01/06 11:00:54;;;;;;;5.32;0.82;;;;;;;;;;5080534;28;20892;-61
2023/01/06 11:03:20;;;;;;;10.75;1.80;;;;;;;;;;5065799;28;20043;-60
2023/01/06 11:05:46;;;;;;;6.18;1.58;;;;;;;;;;5085332;28;20036;-60
2023/01/06 11:08:14;;;;;;;4.57;1.05;;;;;;;;;;5084776;28;20050;-60
2023/01/06 11:10:44;;;;;;;6.05;1.08;;;;;;;;;;5083631;28;20052;-60
2023/01/06 11:13:24;;;;;;;7.25;1.58;;;;;;;;;;5080324;28;20059;-61
2023/01/06 11:15:50;;;;;;;7.47;1.70;;;;;;;;;;5060854;28;20048;-60
2023/01/06 11:18:21;;;;;;;4.47;0.90;;;;;;;;;;5064469;28;20123;-60
2023/01/06 11:21:07;;;;;;;5.45;1.38;;;;;;;;;;5075792;28;20048;-63
2023/01/06 11:23:34;;;;;;;9.55;1.77;;;;;;;;;;5077242;28;20453;-60
2023/01/06 11:26:07;;;;;;;7.63;1.42;;;;;;;;;;5090048;28;20184;-61
2023/01/06 11:28:33;;;;;;;5.72;1.17;;;;;;;;;;5102198;28;20055;-60
2023/01/06 11:31:06;;;;;;;4.88;1.20;;;;;;;;;;5085125;28;20508;-60
2023/01/06 11:33:33;;;;;;;4.13;1.35;;;;;;;;;;5094768;28;20263;-60
2023/01/06 11:36:06;;;;;;;7.78;1.08;;;;;;;;;;5096846;28;20173;-60
2023/01/06 11:38:39;;;;;;;7.30;1.70;;;;;;;;;;5099461;28;20548;-60
2023/01/06 11:41:07;;;;;;;8.70;1.90;;;;;;;;;;5103038;28;20210;-60
2023/01/06 11:43:33;;;;;;;2.22;1.05;;;;;;;;;;5085891;28;20281;-61
2023/01/06 11:46:05;;;;;;;5.45;1.92;;;;;;;;;;5107531;28;20038;-61
2023/01/06 11:48:33;;;;;;;8.45;1.25;;;;;;;;;;5103065;28;20048;-61
2023/01/06 11:50:59;;;;;;;4.57;1.27;;;;;;;;;;5080018;28;20071;-67
2023/01/06 11:53:25;;;;;;;5.65;1.50;;;;;;;;;;5086991;28;20079;-61
2023/01/06 11:56:02;;;;;;;5.38;1.50;;;;;;;;;;5078118;28;20043;-60
2023/01/06 11:58:34;;;;;;;11.60;2.22;;;;;;;;;;5095982;28;20513;-61
2023/01/06 12:01:03;;;;;;;10.98;2.00;;;;;;;;;;5060847;28;20106;-60
2023/01/06 12:03:34;;;;;;;10.55;1.67;;;;;;;;;;5077587;28;20058;-61
2023/01/06 12:06:06;;;;;;;7.25;1.90;;;;;;;;;;5070220;28;20494;-61
2023/01/06 12:08:32;;;;;;;;;;;;;;;;;;5071194;28;20095;-60
2023/01/06 12:11:18;;;;;;;9.05;1.52;;;;;;;;;;5059405;28;20557;-61
2023/01/06 12:13:44;;;;;;;5.28;1.67;;;;;;;;;;5049375;28;20086;-61
2023/01/06 12:16:22;;;;;;;5.22;1.15;;;;;;;;;;5093821;28;20040;-60
2023/01/06 12:18:49;;;;;;;6.90;1.40;;;;;;;;;;5102124;28;20051;-60
2023/01/06 12:21:18;;;;;;;7.30;1.85;;;;;;;;;;5079882;28;20052;-61
2023/01/06 12:23:45;;;;;;;6.93;1.83;;;;;;;;;;5072754;28;20044;-60
2023/01/06 12:26:19;;;;;;;10.98;2.80;;;;;;;;;;5076115;28;20052;-61
2023/01/06 12:28:47;;;;;;;6.85;1.65;;;;;;;;;;5083566;28;20093;-63
2023/01/06 12:31:19;;;;;;;4.10;1.45;;;;;;;;;;5086156;28;20042;-61
2023/01/06 12:33:55;;;;;;;3.97;1.38;;;;;;;;;;5087871;28;20567;-61
2023/01/06 12:36:21;;;;;;;5.88;1.77;;;;;;;;;;5062160;28;20537;-61
2023/01/06 12:38:55;;;;;;;3.95;1.20;;;;;;;;;;5086354;28;20050;-61
2023/01/06 12:41:38;;;;;;;4.70;1.67;;;;;;;;;;5087477;28;20062;-60
2023/01/06 12:44:23;;;;;;;4.88;1.35;;;;;;;;;;5076518;28;20139;-60
2023/01/06 12:46:58;;;;;;;7.78;1.45;;;;;;;;;;5049060;28;20399;-60
2023/01/06 12:49:25;;;;;;;13.23;1.88;;;;;;;;;;5079413;28;20050;-61
2023/01/06 12:51:53;;;;;;;16.58;1.83;;;;;;;;;;5067260;28;20032;-61
2023/01/06 12:54:33;;;;;;;6.88;1.38;;;;;;;;;;5078137;28;20047;-61
2023/01/06 12:56:58;;;;;;;7.32;1.90;;;;;;;;;;5081038;28;20501;-61
2023/01/06 12:59:24;;;;;;;4.25;1.42;;;;;;;;;;5087403;28;20031;-60
2023/01/06 13:02:03;;;;;;;10.35;1.75;;;;;;;;;;5102999;28;20144;-60
2023/01/06 13:04:32;;;;;;;12.43;1.60;;;;;;;;;;5094602;28;20044;-61
2023/01/06 13:07:10;;;;;;;9.43;2.08;;;;;;;;;;5077186;28;20047;-61
2023/01/06 13:09:39;;;;;;;6.03;1.90;;;;;;;;;;5092453;28;20508;-61
2023/01/06 13:12:12;;;;;;;10.57;1.65;;;;;;;;;;5078489;28;20047;-61
2023/01/06 13:14:46;;;;;;;5.40;1.88;;;;;;;;;;5098076;28;20040;-61
2023/01/06 13:17:25;;;;;;;12.60;1.55;;;;;;;;;;5103670;28;20108;-61
2023/01/06 13:19:55;;;;;;;8.38;1.98;;;;;;;;;;5088721;28;20090;-61
2023/01/06 13:22:21;;;;;;;5.85;1.75;;;;;;;;;;5088478;28;20048;-61
2023/01/06 13:25:04;;;;;;;11.88;1.52;;;;;;;;;;5102078;28;20040;-61
2023/01/06 13:27:36;;;;;;;8.48;1.13;;;;;;;;;;5101493;28;20417;-61
2023/01/06 13:30:15;;;;;;;7.45;1.60;;;;;;;;;;5084948;28;20572;-61
2023/01/06 13:32:48;;;;;;;9.52;1.50;;;;;;;;;;5086889;28;20494;-61
2023/01/06 13:35:27;;;;;;;16.92;2.22;;;;;;;;;;5101710;28;20068;-61
2023/01/06 13:38:12;;;;;;;8.02;2.42;;;;;;;;;;5086093;28;20564;-61
2023/01/06 13:40:39;;;;;;;6.45;1.63;;;;;;;;;;5101739;28;20052;-61
2023/01/06 13:43:07;;;;;;;4.47;1.02;;;;;;;;;;5099456;28;20039;-61
2023/01/06 13:45:36;;;;;;;6.15;1.65;;;;;;;;;;5087240;28;20039;-60
2023/01/06 13:48:07;;;;;;;4.43;1.33;;;;;;;;;;5101891;28;20039;-60
2023/01/06 13:50:34;;;;;;;9.97;1.13;;;;;;;;;;5097224;28;20049;-61
2023/01/06 13:53:00;;;;;;;2.53;0.98;;;;;;;;;;5084742;28;20376;-60
2023/01/06 13:55:31;;;;;;;8.27;1.77;;;;;;;;;;5099583;28;20054;-61
2023/01/06 13:58:17;;;;;;;6.40;1.60;;;;;;;;;;5097036;28;20048;-60
2023/01/06 14:00:43;;;;;;;8.93;1.73;;;;;;;;;;5102703;28;20513;-61
2023/01/06 14:03:14;;;;;;;3.83;1.30;;;;;;;;;;5087495;28;20075;-61
2023/01/06 14:05:40;;;;;;;10.27;2.10;;;;;;;;;;5086845;28;20054;-60
2023/01/06 14:08:14;;;;;;;5.22;1.55;;;;;;;;;;5087357;28;20393;-61
2023/01/06 14:10:54;;;;;;;5.68;1.75;;;;;;;;;;5104176;27;20121;-58
2023/01/06 14:13:22;;;;;;;7.72;1.25;;;;;;;;;;5087360;28;20040;-58
2023/01/06 14:15:54;;;;;;;4.65;1.10;;;;;;;;;;5086885;28;20042;-57
2023/01/06 14:18:31;;;;;;;9.13;2.15;;;;;;;;;;5096048;28;20040;-57
2023/01/06 14:21:02;;;;;;;8.48;1.75;;;;;;;;;;5097089;28;20427;-58
2023/01/06 14:23:28;;;;;;;5.95;1.83;;;;;;;;;;5086727;28;20053;-59
2023/01/06 14:25:55;;;;;;;5.30;1.98;;;;;;;;;;5090758;28;20040;-58
2023/01/06 14:28:21;;;;;;;7.45;1.55;;;;;;;;;;5091721;28;20048;-57
2023/01/06 14:30:48;;;;;;;8.90;2.15;;;;;;;;;;5096534;28;20102;-58
2023/01/06 14:33:34;;;;;;;6.90;1.48;;;;;;;;;;5101249;28;20075;-58
2023/01/06 14:36:13;;;;;;;14.25;2.17;;;;;;;;;;5102107;28;20051;-60
2023/01/06 14:38:44;;;;;;;10.05;2.28;;;;;;;;;;5102401;28;20138;-58
2023/01/06 14:41:16;;;;;;;7.55;1.70;;;;;;;;;;5103722;28;20040;-60
2023/01/06 14:43:42;;;;;;;4.60;1.35;;;;;;;;;;5103800;28;20419;-58
2023/01/06 14:46:14;;;;;;;9.52;1.98;;;;;;;;;;5087711;28;20041;-57
2023/01/06 14:48:43;;;;;;;6.30;1.25;;;;;;;;;;5101679;28;20043;-58
2023/01/06 14:51:12;;;;;;;6.22;1.00;;;;;;;;;;5103073;28;20485;-58
2023/01/06 14:53:41;;;;;;;10.07;1.38;;;;;;;;;;5102707;28;20043;-58
2023/01/06 14:56:15;;;;;;;4.93;1.50;;;;;;;;;;5103269;28;20087;-58